createdAt,value
2018-08-06T00:00:36.183Z,84.08
2018-08-06T00:01:46.040Z,84.47
2018-08-06T00:02:55.613Z,84.27
2018-08-06T00:04:05.190Z,84.18
2018-08-06T00:05:15.320Z,83.8
2018-08-06T00:06:24.894Z,83.89
2018-08-06T00:07:34.737Z,83.7
2018-08-06T00:08:44.308Z,83.8
2018-08-06T00:09:53.884Z,83.51
2018-08-06T00:11:03.722Z,83.41
2018-08-06T00:12:13.566Z,83.22
2018-08-06T00:13:22.867Z,83.03
2018-08-06T00:14:32.181Z,82.74
2018-08-06T00:15:41.485Z,82.84
2018-08-06T00:16:51.329Z,82.16
2018-08-06T00:18:00.933Z,82.93
2018-08-06T00:19:10.745Z,82.26
2018-08-06T00:20:20.639Z,82.26
2018-08-06T00:21:30.484Z,81.74
2018-08-06T00:22:40.056Z,81.93
2018-08-06T00:23:49.895Z,82.03
2018-08-06T00:24:59.740Z,82.21
2018-08-06T00:26:09.037Z,81.93
2018-08-06T00:27:18.610Z,81.64
2018-08-06T00:28:28.514Z,81.54
2018-08-06T00:29:38.284Z,81.35
2018-08-06T00:30:48.642Z,81.26
2018-08-06T00:31:58.756Z,81.74
2018-08-06T00:33:08.335Z,81.26
2018-08-06T00:34:17.637Z,81.16
2018-08-06T00:35:26.943Z,81.26
2018-08-06T00:36:36.793Z,81.64
2018-08-06T00:37:46.099Z,81.07
2018-08-06T00:38:55.950Z,80.97
2018-08-06T00:40:05.791Z,80.87
2018-08-06T00:41:15.641Z,80.87
2018-08-06T00:42:25.476Z,80.49
2018-08-06T00:43:35.052Z,80.4
2018-08-06T00:44:44.625Z,80.49
2018-08-06T00:45:54.472Z,80.4
2018-08-06T00:47:04.325Z,80.4
2018-08-06T00:48:13.904Z,80.49
2018-08-06T00:49:23.746Z,80.58
2018-08-06T00:50:33.319Z,80.68
2018-08-06T00:51:43.169Z,80.49
2018-08-06T00:52:53.018Z,80.49
2018-08-06T00:54:03.187Z,80.58
2018-08-06T00:55:13.026Z,80.58
2018-08-06T00:56:22.325Z,80.58
2018-08-06T00:57:31.625Z,80.78
2018-08-06T00:58:41.506Z,80.78
2018-08-06T00:59:51.086Z,80.11
2018-08-06T01:01:00.935Z,80.01
2018-08-06T01:02:10.511Z,80.11
2018-08-06T01:03:20.352Z,80.2
2018-08-06T01:04:30.203Z,80.11
2018-08-06T01:05:40.053Z,80.2
2018-08-06T01:06:49.675Z,80.01
2018-08-06T01:07:59.258Z,80.3
2018-08-06T01:09:09.098Z,80.2
2018-08-06T01:10:18.398Z,80.01
2018-08-06T01:11:28.244Z,80.01
2018-08-06T01:12:37.603Z,80.2
2018-08-06T01:13:47.448Z,80.3
2018-08-06T01:14:57.295Z,80.2
2018-08-06T01:16:06.599Z,80.01
2018-08-06T01:17:16.446Z,80.49
2018-08-06T01:18:26.333Z,79.82
2018-08-06T01:19:35.906Z,80.45
2018-08-06T01:20:45.475Z,80.55
2018-08-06T01:21:54.781Z,80.45
2018-08-06T01:23:04.351Z,80.45
2018-08-06T01:24:13.930Z,79.97
2018-08-06T01:25:23.500Z,79.97
2018-08-06T01:26:32.799Z,79.97
2018-08-06T01:27:42.115Z,79.97
2018-08-06T01:28:51.419Z,80.16
2018-08-06T01:30:00.990Z,80.16
2018-08-06T01:31:10.834Z,79.78
2018-08-06T01:32:20.675Z,80.07
2018-08-06T01:33:30.783Z,80.07
2018-08-06T01:34:40.090Z,80.16
2018-08-06T01:35:49.987Z,79.97
2018-08-06T01:36:59.828Z,80.16
2018-08-06T01:38:09.403Z,80.16
2018-08-06T01:39:18.987Z,79.97
2018-08-06T01:40:28.828Z,80.16
2018-08-06T01:41:38.699Z,80.16
2018-08-06T01:42:48.563Z,79.78
2018-08-06T01:43:58.133Z,79.68
2018-08-06T01:45:07.715Z,79.68
2018-08-06T01:46:17.594Z,79.78
2018-08-06T01:47:27.434Z,79.39
2018-08-06T01:48:37.006Z,79.36
2018-08-06T01:49:46.585Z,79.55
2018-08-06T01:50:56.435Z,79.36
2018-08-06T01:52:06.009Z,79.74
2018-08-06T01:53:15.899Z,79.26
2018-08-06T01:54:25.474Z,79.07
2018-08-06T01:55:35.585Z,78.78
2018-08-06T01:56:45.705Z,78.88
2018-08-06T01:57:55.272Z,79.36
2018-08-06T01:59:04.360Z,79.16
2018-08-06T02:00:14.201Z,78.4
2018-08-06T02:01:23.769Z,78.97
2018-08-06T02:02:33.350Z,79.16
2018-08-06T02:03:43.189Z,78.49
2018-08-06T02:04:52.493Z,78.49
2018-08-06T02:06:02.066Z,79.07
2018-08-06T02:07:11.641Z,78.69
2018-08-06T02:08:21.794Z,79.26
2018-08-06T02:09:31.361Z,78.49
2018-08-06T02:10:40.933Z,78.69
2018-08-06T02:11:50.236Z,78.3
2018-08-06T02:13:00.083Z,78.88
2018-08-06T02:14:09.654Z,78.4
2018-08-06T02:15:19.502Z,78.59
2018-08-06T02:16:29.355Z,79.07
2018-08-06T02:17:38.917Z,78.97
2018-08-06T02:18:48.495Z,78.4
2018-08-06T02:19:57.798Z,78.4
2018-08-06T02:21:07.372Z,78.49
2018-08-06T02:22:17.225Z,78.69
2018-08-06T02:23:27.063Z,78.4
2018-08-06T02:24:37.181Z,79.03
2018-08-06T02:25:47.031Z,78.2
2018-08-06T02:26:56.600Z,78.4
2018-08-06T02:28:06.445Z,78.2
2018-08-06T02:29:15.748Z,78.49
2018-08-06T02:30:25.319Z,78.49
2018-08-06T02:31:34.893Z,78.11
2018-08-06T02:32:45.025Z,78.07
2018-08-06T02:33:54.064Z,78.07
2018-08-06T02:35:03.380Z,77.88
2018-08-06T02:36:12.677Z,78.17
2018-08-06T02:37:22.807Z,77.78
2018-08-06T02:38:32.919Z,77.5
2018-08-06T02:39:42.770Z,77.4
2018-08-06T02:40:52.628Z,77.4
2018-08-06T02:42:02.219Z,77.11
2018-08-06T02:43:11.527Z,76.92
2018-08-06T02:44:21.107Z,76.92
2018-08-06T02:45:30.683Z,77.11
2018-08-06T02:46:40.526Z,76.92
2018-08-06T02:47:50.098Z,76.82
2018-08-06T02:48:59.671Z,77.02
2018-08-06T02:50:09.785Z,76.82
2018-08-06T02:51:19.919Z,76.73
2018-08-06T02:52:29.497Z,76.54
2018-08-06T02:53:38.796Z,76.64
2018-08-06T02:54:48.634Z,76.64
2018-08-06T02:55:58.472Z,76.25
2018-08-06T02:57:07.822Z,76.54
2018-08-06T02:58:17.126Z,76.35
2018-08-06T02:59:26.996Z,76.06
2018-08-06T03:00:36.844Z,76.15
2018-08-06T03:01:46.420Z,76.25
2018-08-06T03:02:56.269Z,75.58
2018-08-06T03:04:06.387Z,75.77
2018-08-06T03:05:16.233Z,75.45
2018-08-06T03:06:25.269Z,74.82
2018-08-06T03:07:34.850Z,74.97
2018-08-06T03:08:44.207Z,74.49
2018-08-06T03:09:53.832Z,74.11
2018-08-06T03:11:03.503Z,74.05
2018-08-06T03:12:13.342Z,73.72
2018-08-06T03:13:23.180Z,73.86
2018-08-06T03:14:33.027Z,73.28
2018-08-06T03:15:43.143Z,73.47
2018-08-06T03:16:52.809Z,73.28
2018-08-06T03:18:02.477Z,73.47
2018-08-06T03:19:12.044Z,73.47
2018-08-06T03:20:21.886Z,73.28
2018-08-06T03:21:31.736Z,73.34
2018-08-06T03:22:41.312Z,73.34
2018-08-06T03:23:51.163Z,74.15
2018-08-06T03:25:01.276Z,73.76
2018-08-06T03:26:11.119Z,73.47
2018-08-06T03:27:20.962Z,73.63
2018-08-06T03:28:30.263Z,73.15
2018-08-06T03:29:40.242Z,73.82
2018-08-06T03:30:50.480Z,73.44
2018-08-06T03:32:00.334Z,73.15
2018-08-06T03:33:10.184Z,73.82
2018-08-06T03:34:20.302Z,73.15
2018-08-06T03:35:30.424Z,73.82
2018-08-06T03:36:39.723Z,73.72
2018-08-06T03:37:49.295Z,73.24
2018-08-06T03:38:59.135Z,73.63
2018-08-06T03:40:08.783Z,73.72
2018-08-06T03:41:19.236Z,73.82
2018-08-06T03:42:29.133Z,73.91
2018-08-06T03:43:38.979Z,73.91
2018-08-06T03:44:48.826Z,73.15
2018-08-06T03:45:58.673Z,73.91
2018-08-06T03:47:07.707Z,73.34
2018-08-06T03:48:17.568Z,72.96
2018-08-06T03:49:26.863Z,73.15
2018-08-06T03:50:36.700Z,73.15
2018-08-06T03:51:46.006Z,72.96
2018-08-06T03:52:55.308Z,73.72
2018-08-06T03:54:04.613Z,73.34
2018-08-06T03:55:14.242Z,73.05
2018-08-06T03:56:24.360Z,73.15
2018-08-06T03:57:33.391Z,73.05
2018-08-06T03:58:43.503Z,72.96
2018-08-06T03:59:53.076Z,73.34
2018-08-06T04:01:02.695Z,73.34
2018-08-06T04:02:12.804Z,73.72
2018-08-06T04:03:22.642Z,73.34
2018-08-06T04:04:32.213Z,73.34
2018-08-06T04:05:41.517Z,73.34
2018-08-06T04:06:51.358Z,73.24
2018-08-06T04:08:00.926Z,73.34
2018-08-06T04:09:10.769Z,73.34
2018-08-06T04:10:20.343Z,73.34
2018-08-06T04:11:30.186Z,72.96
2018-08-06T04:12:40.027Z,72.96
2018-08-06T04:13:49.328Z,72.77
2018-08-06T04:14:59.167Z,72.48
2018-08-06T04:16:09.282Z,72
2018-08-06T04:17:19.119Z,71.52
2018-08-06T04:18:29.241Z,71.81
2018-08-06T04:19:39.411Z,71.33
2018-08-06T04:20:49.739Z,71.62
2018-08-06T04:21:59.311Z,71.81
2018-08-06T04:23:09.155Z,71.62
2018-08-06T04:24:19.049Z,71.42
2018-08-06T04:25:28.085Z,71.62
2018-08-06T04:26:37.924Z,71.23
2018-08-06T04:27:48.034Z,71.04
2018-08-06T04:28:57.876Z,71.14
2018-08-06T04:30:06.912Z,70.95
2018-08-06T04:31:16.761Z,70.76
2018-08-06T04:32:26.600Z,70.76
2018-08-06T04:33:35.632Z,70.85
2018-08-06T04:34:45.208Z,70.47
2018-08-06T04:35:55.104Z,70.37
2018-08-06T04:37:04.135Z,70.66
2018-08-06T04:38:14.245Z,70.66
2018-08-06T04:39:24.099Z,70.47
2018-08-06T04:40:33.400Z,70.28
2018-08-06T04:41:42.976Z,70.09
2018-08-06T04:42:52.287Z,70.09
2018-08-06T04:44:01.864Z,70.09
2018-08-06T04:45:11.163Z,70.09
2018-08-06T04:46:21.278Z,70.09
2018-08-06T04:47:30.851Z,69.89
2018-08-06T04:48:40.710Z,69.89
2018-08-06T04:49:50.015Z,70.18
2018-08-06T04:50:59.854Z,69.8
2018-08-06T04:52:09.437Z,69.89
2018-08-06T04:53:19.062Z,69.89
2018-08-06T04:54:28.637Z,69.42
2018-08-06T04:55:38.207Z,69.93
2018-08-06T04:56:47.243Z,69.8
2018-08-06T04:57:56.817Z,69.89
2018-08-06T04:59:06.674Z,69.26
2018-08-06T05:00:16.518Z,69.23
2018-08-06T05:01:26.627Z,68.87
2018-08-06T05:02:36.199Z,68.68
2018-08-06T05:03:46.046Z,68.4
2018-08-06T05:04:55.895Z,67.63
2018-08-06T05:06:05.198Z,67.63
2018-08-06T05:07:15.308Z,66.86
2018-08-06T05:08:24.619Z,66.96
2018-08-06T05:09:34.191Z,66.29
2018-08-06T05:10:44.070Z,65.05
2018-08-06T05:11:53.367Z,63.13
2018-08-06T05:13:02.940Z,62.26
2018-08-06T05:14:13.051Z,61.79
2018-08-06T05:15:22.348Z,62.07
2018-08-06T05:16:31.922Z,61.98
2018-08-06T05:17:41.778Z,61.69
2018-08-06T05:18:51.622Z,61.82
2018-08-06T05:20:00.930Z,61.15
2018-08-06T05:21:10.506Z,61.15
2018-08-06T05:22:20.076Z,60.67
2018-08-06T05:23:29.918Z,60.57
2018-08-06T05:24:39.797Z,60
2018-08-06T05:25:49.943Z,59.04
2018-08-06T05:26:59.524Z,58.94
2018-08-06T05:28:09.365Z,58.46
2018-08-06T05:29:18.944Z,58.17
2018-08-06T05:30:29.054Z,57.79
2018-08-06T05:31:38.626Z,57.12
2018-08-06T05:32:47.927Z,57.98
2018-08-06T05:33:57.828Z,56.54
2018-08-06T05:35:07.674Z,56.74
2018-08-06T05:36:17.242Z,56.83
2018-08-06T05:37:26.816Z,56.45
2018-08-06T05:38:36.968Z,56.54
2018-08-06T05:39:47.083Z,56.07
2018-08-06T05:40:57.004Z,56.16
2018-08-06T05:42:06.853Z,56.16
2018-08-06T05:43:16.431Z,56.57
2018-08-06T05:44:25.754Z,56.67
2018-08-06T05:45:35.597Z,56.67
2018-08-06T05:46:45.439Z,56.76
2018-08-06T05:47:55.561Z,56.48
2018-08-06T05:49:05.141Z,56.67
2018-08-06T05:50:15.012Z,56.67
2018-08-06T05:51:24.857Z,56.96
2018-08-06T05:52:34.158Z,56.38
2018-08-06T05:53:43.725Z,56.86
2018-08-06T05:54:53.308Z,56.86
2018-08-06T05:56:03.155Z,57.06
2018-08-06T05:57:12.458Z,56.38
2018-08-06T05:58:22.396Z,56.67
2018-08-06T05:59:32.608Z,56.67
2018-08-06T06:00:41.915Z,56.86
2018-08-06T06:01:51.492Z,57.08
2018-08-06T06:03:01.333Z,57.08
2018-08-06T06:04:11.505Z,57.65
2018-08-06T06:05:21.359Z,57.75
2018-08-06T06:06:31.533Z,57.65
2018-08-06T06:07:41.107Z,57.46
2018-08-06T06:08:51.226Z,58.14
2018-08-06T06:10:01.110Z,58.04
2018-08-06T06:11:11.237Z,58.23
2018-08-06T06:12:21.354Z,58.81
2018-08-06T06:13:30.655Z,58.33
2018-08-06T06:14:39.969Z,58.42
2018-08-06T06:15:49.275Z,58.62
2018-08-06T06:16:58.586Z,59
2018-08-06T06:18:08.706Z,59.09
2018-08-06T06:19:18.479Z,59.48
2018-08-06T06:20:28.709Z,59.96
2018-08-06T06:21:38.560Z,59.96
2018-08-06T06:22:48.677Z,59.96
2018-08-06T06:23:58.789Z,60.85
2018-08-06T06:25:08.656Z,60.66
2018-08-06T06:26:18.304Z,60.75
2018-08-06T06:27:28.142Z,60.95
2018-08-06T06:28:37.591Z,60.75
2018-08-06T06:29:47.595Z,61.05
2018-08-06T06:30:57.714Z,61.52
2018-08-06T06:32:07.306Z,62.01
2018-08-06T06:33:17.148Z,61.91
2018-08-06T06:34:26.846Z,62.48
2018-08-06T06:35:37.329Z,62.48
2018-08-06T06:36:46.629Z,63.25
2018-08-06T06:37:56.473Z,63.06
2018-08-06T06:39:06.049Z,63.25
2018-08-06T06:40:16.167Z,63.35
2018-08-06T06:41:25.740Z,63.35
2018-08-06T06:42:35.307Z,62.87
2018-08-06T06:43:44.890Z,63.38
2018-08-06T06:44:54.733Z,62.81
2018-08-06T06:46:04.306Z,62.81
2018-08-06T06:47:14.149Z,63.38
2018-08-06T06:48:23.185Z,63.09
2018-08-06T06:49:33.027Z,62.81
2018-08-06T06:50:42.876Z,62.99
2018-08-06T06:51:52.729Z,62.81
2018-08-06T06:53:02.034Z,63.38
2018-08-06T06:54:11.890Z,63.09
2018-08-06T06:55:21.787Z,64.05
2018-08-06T06:56:31.092Z,64.18
2018-08-06T06:57:40.673Z,64.15
2018-08-06T06:58:50.248Z,64.47
2018-08-06T07:00:00.496Z,64.47
2018-08-06T07:01:10.625Z,65.33
2018-08-06T07:02:20.488Z,65.23
2018-08-06T07:03:30.337Z,65.33
2018-08-06T07:04:40.474Z,65.23
2018-08-06T07:05:49.775Z,65.81
2018-08-06T07:06:59.630Z,66.2
2018-08-06T07:08:09.483Z,65.91
2018-08-06T07:09:18.785Z,65.62
2018-08-06T07:10:28.090Z,65.62
2018-08-06T07:11:37.399Z,65.91
2018-08-06T07:12:46.967Z,66.91
2018-08-06T07:13:57.083Z,67.77
2018-08-06T07:15:07.504Z,67.96
2018-08-06T07:16:17.391Z,67.86
2018-08-06T07:17:27.259Z,68.83
2018-08-06T07:18:36.842Z,68.83
2018-08-06T07:19:46.420Z,69.79
2018-08-06T07:20:56.284Z,70.17
2018-08-06T07:22:05.867Z,70.46
2018-08-06T07:23:15.451Z,71.04
2018-08-06T07:24:24.544Z,71.55
2018-08-06T07:25:34.129Z,70.98
2018-08-06T07:26:43.985Z,71.55
2018-08-06T07:27:53.562Z,71.26
2018-08-06T07:29:03.468Z,71.75
2018-08-06T07:30:13.054Z,71.84
2018-08-06T07:31:22.368Z,72.42
2018-08-06T07:32:31.677Z,72.42
2018-08-06T07:33:41.107Z,72.42
2018-08-06T07:34:51.227Z,73
2018-08-06T07:36:01.343Z,73
2018-08-06T07:37:10.649Z,73.8
2018-08-06T07:38:20.758Z,74.57
2018-08-06T07:39:30.696Z,75.73
2018-08-06T07:40:40.003Z,76.21
2018-08-06T07:41:49.902Z,76.11
2018-08-06T07:42:59.235Z,76.11
2018-08-06T07:44:08.881Z,77.17
2018-08-06T07:45:18.458Z,76.88
2018-08-06T07:46:27.769Z,78.03
2018-08-06T07:47:37.620Z,77.65
2018-08-06T07:48:46.928Z,78.23
2018-08-06T07:49:56.711Z,78.23
2018-08-06T07:51:06.788Z,78.52
2018-08-06T07:52:16.644Z,79
2018-08-06T07:53:26.221Z,79.23
2018-08-06T07:54:35.531Z,79.33
2018-08-06T07:55:45.103Z,79.81
2018-08-06T07:56:54.958Z,80.29
2018-08-06T07:58:04.280Z,80.77
2018-08-06T07:59:14.128Z,81.16
2018-08-06T08:00:23.990Z,81.29
2018-08-06T08:01:33.846Z,81.73
2018-08-06T08:02:43.438Z,81.29
2018-08-06T08:03:52.743Z,81.68
2018-08-06T08:05:02.399Z,81.77
2018-08-06T08:06:11.981Z,82.26
2018-08-06T08:07:21.571Z,81.68
2018-08-06T08:08:31.410Z,82.06
2018-08-06T08:09:41.256Z,81.87
2018-08-06T08:10:51.375Z,81.87
2018-08-06T08:12:01.690Z,81.96
2018-08-06T08:13:11.353Z,81.68
2018-08-06T08:14:21.464Z,81.96
2018-08-06T08:15:31.317Z,82.49
2018-08-06T08:16:40.898Z,83.07
2018-08-06T08:17:50.206Z,83.26
2018-08-06T08:19:00.050Z,83.07
2018-08-06T08:20:09.940Z,83.45
2018-08-06T08:21:20.400Z,83.55
2018-08-06T08:22:29.434Z,83.07
2018-08-06T08:23:39.012Z,82.68
2018-08-06T08:24:48.370Z,82.92
2018-08-06T08:25:58.216Z,82.92
2018-08-06T08:27:08.359Z,82.82
2018-08-06T08:28:17.674Z,83.3
2018-08-06T08:29:27.522Z,83.4
2018-08-06T08:30:37.107Z,83.69
2018-08-06T08:31:46.959Z,83.69
2018-08-06T08:32:57.075Z,83.98
2018-08-06T08:34:06.874Z,83.01
2018-08-06T08:35:16.549Z,83.88
2018-08-06T08:36:25.869Z,84.01
2018-08-06T08:37:35.454Z,82.96
2018-08-06T08:38:45.583Z,82.76
2018-08-06T08:39:55.437Z,83.05
2018-08-06T08:41:05.297Z,83.34
2018-08-06T08:42:14.879Z,83.83
2018-08-06T08:43:24.463Z,83.73
2018-08-06T08:44:34.047Z,83.73
2018-08-06T08:45:43.538Z,83.92
2018-08-06T08:46:53.382Z,83.77
2018-08-06T08:48:02.955Z,83.19
2018-08-06T08:49:11.992Z,82.61
2018-08-06T08:50:21.296Z,82.23
2018-08-06T08:51:31.141Z,82.32
2018-08-06T08:52:40.719Z,82.71
2018-08-06T08:53:50.566Z,82.13
2018-08-06T08:54:59.866Z,82.71
2018-08-06T08:56:09.477Z,82.32
2018-08-06T08:57:19.058Z,80.1
2018-08-06T08:58:28.921Z,79.47
2018-08-06T08:59:38.694Z,81.07
2018-08-06T09:00:48.542Z,82.36
2018-08-06T09:01:58.124Z,83.14
2018-08-06T09:03:08.247Z,83.33
2018-08-06T09:04:17.013Z,83.23
2018-08-06T09:05:26.048Z,82.94
2018-08-06T09:06:35.359Z,81.4
2018-08-06T09:07:44.668Z,80.91
2018-08-06T09:08:54.529Z,80.82
2018-08-06T09:10:04.648Z,80.38
2018-08-06T09:11:14.509Z,82.31
2018-08-06T09:12:24.091Z,81.68
2018-08-06T09:13:33.661Z,80.95
2018-08-06T09:14:43.283Z,79.8
2018-08-06T09:15:52.868Z,79.12
2018-08-06T09:17:02.750Z,78.73
2018-08-06T09:18:12.332Z,78.06
2018-08-06T09:19:22.180Z,78.54
2018-08-06T09:20:31.769Z,79.22
2018-08-06T09:21:41.617Z,79.89
2018-08-06T09:22:51.477Z,80.66
2018-08-06T09:24:01.326Z,80.57
2018-08-06T09:25:11.447Z,78.92
2018-08-06T09:26:21.307Z,79.22
2018-08-06T09:27:30.890Z,76.74
2018-08-06T09:28:40.469Z,76.16
2018-08-06T09:29:50.062Z,77.51
2018-08-06T09:30:59.643Z,77.42
2018-08-06T09:32:08.951Z,78.67
2018-08-06T09:33:18.799Z,79.45
2018-08-06T09:34:28.375Z,79.74
2018-08-06T09:35:38.222Z,78.48
2018-08-06T09:36:48.075Z,78.91
2018-08-06T09:37:57.653Z,78.52
2018-08-06T09:39:07.232Z,78.81
2018-08-06T09:40:17.216Z,78.13
2018-08-06T09:41:27.576Z,79.78
2018-08-06T09:42:37.158Z,77.26
2018-08-06T09:43:46.728Z,76.2
2018-08-06T09:44:56.567Z,75.33
2018-08-06T09:46:06.158Z,74.88
2018-08-06T09:47:16.052Z,76.53
2018-08-06T09:48:25.634Z,77.3
2018-08-06T09:49:35.597Z,76.53
2018-08-06T09:50:45.442Z,76.91
2018-08-06T09:51:55.083Z,76.62
2018-08-06T09:53:04.396Z,77.63
2018-08-06T09:54:13.984Z,77.44
2018-08-06T09:55:23.823Z,75.37
2018-08-06T09:56:33.680Z,76.08
2018-08-06T09:57:42.988Z,76.46
2018-08-06T09:58:52.846Z,76.28
2018-08-06T10:00:02.430Z,74.05
2018-08-06T10:01:11.464Z,74.92
2018-08-06T10:02:21.322Z,74.53
2018-08-06T10:03:31.167Z,75.11
2018-08-06T10:04:40.739Z,74.15
2018-08-06T10:05:50.198Z,72.53
2018-08-06T10:07:01.174Z,72.92
2018-08-06T10:08:11.021Z,73.99
2018-08-06T10:09:20.607Z,73.5
2018-08-06T10:10:30.186Z,74.28
2018-08-06T10:11:40.036Z,73.31
2018-08-06T10:12:49.625Z,73.11
2018-08-06T10:13:58.934Z,73.31
2018-08-06T10:15:08.515Z,73.41
2018-08-06T10:16:17.825Z,71.76
2018-08-06T10:17:27.692Z,71.37
2018-08-06T10:18:37.611Z,71.6
2018-08-06T10:19:47.777Z,72.67
2018-08-06T10:20:57.353Z,71.99
2018-08-06T10:22:07.202Z,70.86
2018-08-06T10:23:17.053Z,71.31
2018-08-06T10:24:26.647Z,71.99
2018-08-06T10:25:36.036Z,71.41
2018-08-06T10:26:45.618Z,69.47
2018-08-06T10:27:54.928Z,69.47
2018-08-06T10:29:04.233Z,69.18
2018-08-06T10:30:13.409Z,69.89
2018-08-06T10:31:23.722Z,69.31
2018-08-06T10:32:33.839Z,69.89
2018-08-06T10:33:43.688Z,68.82
2018-08-06T10:34:53.266Z,68.44
2018-08-06T10:36:03.116Z,67.95
2018-08-06T10:37:13.238Z,69.12
2018-08-06T10:38:22.819Z,69.34
2018-08-06T10:39:32.397Z,69.54
2018-08-06T10:40:41.979Z,68.86
2018-08-06T10:41:51.558Z,69.06
2018-08-06T10:43:01.139Z,68.47
2018-08-06T10:44:10.729Z,66.63
2018-08-06T10:45:20.576Z,64.88
2018-08-06T10:46:30.422Z,64.5
2018-08-06T10:47:40.270Z,65.27
2018-08-06T10:48:50.118Z,64.72
2018-08-06T10:50:00.024Z,65.2
2018-08-06T10:51:09.348Z,64.33
2018-08-06T10:52:18.929Z,65.05
2018-08-06T10:53:28.511Z,65.05
2018-08-06T10:54:38.370Z,65.33
2018-08-06T10:55:47.188Z,64.95
2018-08-06T10:56:56.784Z,65.43
2018-08-06T10:58:06.661Z,65.82
2018-08-06T10:59:15.978Z,64.36
2018-08-06T11:00:25.559Z,65.24
2018-08-06T11:01:35.721Z,64.3
2018-08-06T11:02:45.308Z,63.91
2018-08-06T11:03:55.272Z,61.97
2018-08-06T11:05:04.864Z,62.35
2018-08-06T11:06:14.448Z,63.62
2018-08-06T11:07:24.306Z,62.07
2018-08-06T11:08:34.189Z,61.58
2018-08-06T11:09:44.062Z,61.97
2018-08-06T11:10:53.914Z,62.65
2018-08-06T11:12:03.500Z,61.97
2018-08-06T11:13:13.622Z,62
2018-08-06T11:14:23.577Z,62.84
2018-08-06T11:15:34.082Z,62.38
2018-08-06T11:16:43.939Z,62
2018-08-06T11:17:53.519Z,62.87
2018-08-06T11:19:02.828Z,63.75
2018-08-06T11:20:12.405Z,61.9
2018-08-06T11:21:22.575Z,61.83
2018-08-06T11:22:32.698Z,61.05
2018-08-06T11:23:42.818Z,60.77
2018-08-06T11:24:52.680Z,60.6
2018-08-06T11:26:02.535Z,60.31
2018-08-06T11:27:12.113Z,58.56
2018-08-06T11:28:21.523Z,57.87
2018-08-06T11:29:31.598Z,57
2018-08-06T11:30:41.179Z,56.71
2018-08-06T11:31:50.760Z,55.54
2018-08-06T11:33:00.338Z,55.83
2018-08-06T11:34:09.918Z,56.12
2018-08-06T11:35:19.768Z,55.74
2018-08-06T11:36:29.628Z,55.74
2018-08-06T11:37:39.799Z,56.22
2018-08-06T11:38:49.923Z,56.54
2018-08-06T11:39:59.786Z,55.47
2018-08-06T11:41:08.824Z,55.66
2018-08-06T11:42:18.949Z,55.08
2018-08-06T11:43:27.988Z,54.33
2018-08-06T11:44:37.565Z,53.75
2018-08-06T11:45:47.418Z,53.75
2018-08-06T11:46:57.266Z,52.6
2018-08-06T11:48:06.897Z,54.06
2018-08-06T11:49:16.750Z,54.55
2018-08-06T11:50:26.860Z,53.41
2018-08-06T11:51:35.918Z,53.02
2018-08-06T11:52:45.502Z,53.44
2018-08-06T11:53:55.133Z,51.48
2018-08-06T11:55:04.981Z,50.29
2018-08-06T11:56:14.572Z,51.56
2018-08-06T11:57:23.924Z,51.48
2018-08-06T11:58:33.500Z,51.09
2018-08-06T11:59:42.811Z,51.29
2018-08-06T12:00:52.986Z,50.34
2018-08-06T12:02:02.451Z,51.41
2018-08-06T12:03:11.701Z,50.04
2018-08-06T12:04:20.759Z,49.85
2018-08-06T12:05:30.621Z,49.85
2018-08-06T12:06:40.212Z,50.26
2018-08-06T12:07:50.074Z,49.1
2018-08-06T12:08:59.656Z,50.07
2018-08-06T12:10:09.240Z,49.49
2018-08-06T12:11:18.567Z,48.8
2018-08-06T12:12:28.154Z,49.78
2018-08-06T12:13:38.357Z,49.58
2018-08-06T12:14:48.466Z,49.22
2018-08-06T12:15:58.322Z,48.54
2018-08-06T12:17:07.917Z,49.32
2018-08-06T12:18:17.497Z,49.32
2018-08-06T12:19:26.546Z,48.75
2018-08-06T12:20:35.862Z,48.07
2018-08-06T12:21:45.180Z,48.09
2018-08-06T12:22:55.040Z,47.41
2018-08-06T12:24:04.366Z,47.7
2018-08-06T12:25:14.053Z,48.19
2018-08-06T12:26:23.754Z,47.04
2018-08-06T12:27:33.243Z,46.36
2018-08-06T12:28:42.560Z,46.94
2018-08-06T12:29:51.878Z,47.14
2018-08-06T12:31:01.735Z,46.36
2018-08-06T12:32:11.623Z,47.04
2018-08-06T12:33:21.823Z,47.92
2018-08-06T12:34:31.205Z,46.94
2018-08-06T12:35:41.403Z,46.37
2018-08-06T12:36:51.306Z,45.5
2018-08-06T12:38:01.319Z,44.81
2018-08-06T12:39:11.029Z,44.03
2018-08-06T12:40:20.094Z,44.23
2018-08-06T12:41:29.422Z,44.44
2018-08-06T12:42:39.548Z,44.64
2018-08-06T12:43:48.867Z,45.54
2018-08-06T12:44:58.828Z,44.66
2018-08-06T12:46:08.785Z,44.37
2018-08-06T12:47:18.931Z,44.95
2018-08-06T12:48:28.829Z,44.17
2018-08-06T12:49:38.744Z,45.34
2018-08-06T12:50:48.941Z,44.37
2018-08-06T12:51:58.582Z,43.58
2018-08-06T12:53:07.952Z,44.19
2018-08-06T12:54:17.561Z,42.03
2018-08-06T12:55:27.188Z,41.45
2018-08-06T12:56:36.778Z,42.25
2018-08-06T12:57:46.716Z,42.94
2018-08-06T12:58:56.862Z,43.33
2018-08-06T13:00:06.999Z,43.23
2018-08-06T13:01:16.595Z,42.45
2018-08-06T13:02:25.973Z,41.17
2018-08-06T13:03:35.650Z,40.7
2018-08-06T13:04:45.800Z,41
2018-08-06T13:05:55.667Z,41.19
2018-08-06T13:07:05.547Z,41.51
2018-08-06T13:08:15.135Z,38.76
2018-08-06T13:09:24.725Z,38.66
2018-08-06T13:10:34.857Z,39.84
2018-08-06T13:11:44.995Z,37.78
2018-08-06T13:12:54.856Z,38.46
2018-08-06T13:14:04.191Z,38.07
2018-08-06T13:15:13.370Z,37.21
2018-08-06T13:16:23.685Z,37.21
2018-08-06T13:17:33.647Z,37.9
2018-08-06T13:18:43.323Z,36.72
2018-08-06T13:19:53.022Z,36.72
2018-08-06T13:21:02.901Z,36.72
2018-08-06T13:22:12.498Z,37.4
2018-08-06T13:23:21.553Z,36.83
2018-08-06T13:24:31.207Z,38.07
2018-08-06T13:25:41.127Z,36.91
2018-08-06T13:26:50.859Z,37.8
2018-08-06T13:28:00.462Z,36.52
2018-08-06T13:29:10.401Z,37.13
2018-08-06T13:30:20.001Z,37.72
2018-08-06T13:31:30.133Z,37.62
2018-08-06T13:32:39.732Z,37.42
2018-08-06T13:33:49.330Z,37.72
2018-08-06T13:34:58.927Z,36.62
2018-08-06T13:36:08.561Z,38.01
2018-08-06T13:37:17.914Z,38.01
2018-08-06T13:38:28.043Z,37.63
2018-08-06T13:39:37.644Z,37.74
2018-08-06T13:40:47.514Z,36.26
2018-08-06T13:41:56.844Z,35.59
2018-08-06T13:43:06.454Z,36.46
2018-08-06T13:44:15.565Z,36.75
2018-08-06T13:45:25.723Z,36.93
2018-08-06T13:46:35.646Z,37.65
2018-08-06T13:47:45.361Z,35.78
2018-08-06T13:48:54.960Z,36
2018-08-06T13:50:04.559Z,34.82
2018-08-06T13:51:14.714Z,34.7
2018-08-06T13:52:24.576Z,33.84
2018-08-06T13:53:34.191Z,34.72
2018-08-06T13:54:43.818Z,34.03
2018-08-06T13:55:53.710Z,33.75
2018-08-06T13:57:03.604Z,35.51
2018-08-06T13:58:13.500Z,36.11
2018-08-06T13:59:23.076Z,37.01
2018-08-06T14:00:33.385Z,36.1
2018-08-06T14:01:43.264Z,33.86
2018-08-06T14:02:53.427Z,36.71
2018-08-06T14:04:02.752Z,37.97
2018-08-06T14:05:12.347Z,35.33
2018-08-06T14:06:22.650Z,34.25
2018-08-06T14:07:31.971Z,33.56
2018-08-06T14:08:41.586Z,32.49
2018-08-06T14:09:51.454Z,32.59
2018-08-06T14:11:01.061Z,32.59
2018-08-06T14:12:10.773Z,33.38
2018-08-06T14:13:20.429Z,33.87
2018-08-06T14:14:30.033Z,34.06
2018-08-06T14:15:39.901Z,36.33
2018-08-06T14:16:49.814Z,33.87
2018-08-06T14:17:59.924Z,37.51
2018-08-06T14:19:09.251Z,34.36
2018-08-06T14:20:18.859Z,36.82
2018-08-06T14:21:28.738Z,39.39
2018-08-06T14:22:38.347Z,35.25
2018-08-06T14:23:47.675Z,35.33
2018-08-06T14:24:57.017Z,34.03
2018-08-06T14:26:06.896Z,34.84
2018-08-06T14:27:16.556Z,35.33
2018-08-06T14:28:26.442Z,35.31
2018-08-06T14:29:36.053Z,36.79
2018-08-06T14:30:45.926Z,36.79
2018-08-06T14:31:55.293Z,33.84
2018-08-06T14:33:04.952Z,32.57
2018-08-06T14:34:15.168Z,31.59
2018-08-06T14:35:25.122Z,31.18
2018-08-06T14:36:34.724Z,31.59
2018-08-06T14:37:44.326Z,31.98
2018-08-06T14:38:53.672Z,31.8
2018-08-06T14:40:03.570Z,31.01
2018-08-06T14:41:13.452Z,33.59
2018-08-06T14:42:23.050Z,33.98
2018-08-06T14:43:32.648Z,34.58
2018-08-06T14:44:42.244Z,34.87
2018-08-06T14:45:51.846Z,34.25
2018-08-06T14:47:01.443Z,34.25
2018-08-06T14:48:10.777Z,35.51
2018-08-06T14:49:20.654Z,35.43
2018-08-06T14:50:30.300Z,36.11
2018-08-06T14:51:40.468Z,35.33
2018-08-06T14:52:50.651Z,32.57
2018-08-06T14:54:00.304Z,30.82
2018-08-06T14:55:10.220Z,30.54
2018-08-06T14:56:20.108Z,30.34
2018-08-06T14:57:29.707Z,30.34
2018-08-06T14:58:39.348Z,31.63
2018-08-06T14:59:49.212Z,30.75
2018-08-06T15:00:58.809Z,31.93